Time;durP1;ratioP1;P1;durP2;ratioP2;P2;SDS_P1;SDS_P2;PMS_P1;PMS_P2;Temp;Humidity;BMP_temperature;BMP_pressure;BME280_temperature;BME280_humidity;BME280_pressure;Samples;Min_cycle;Max_cycle;Signal;HPM_P1;HPM_P2
2024/03/23 00:01:50;;;;;;;17.83;2.88;;;;;;;6.23;100.00;100827.59;6113393;23;20014;-74
2024/03/23 00:04:17;;;;;;;20.05;3.80;;;;;;;6.21;100.00;100830.50;6111534;23;20037;-76
2024/03/23 00:06:43;;;;;;;19.90;2.88;;;;;;;6.20;100.00;100818.25;6087965;23;20018;-77
2024/03/23 00:09:10;;;;;;;13.95;4.68;;;;;;;6.19;100.00;100816.66;6090058;23;20021;-70
2024/03/23 00:11:37;;;;;;;16.13;2.35;;;;;;;6.17;100.00;100810.78;6145155;23;20028;-70
2024/03/23 00:14:04;;;;;;;15.30;2.30;;;;;;;6.14;100.00;100803.25;6171916;23;20346;-70
2024/03/23 00:16:33;;;;;;;17.38;2.42;;;;;;;6.11;100.00;100814.38;6146582;23;20016;-72
2024/03/23 00:19:00;;;;;;;11.52;2.33;;;;;;;6.08;100.00;100812.19;6172012;23;20017;-72
2024/03/23 00:21:27;;;;;;;20.27;2.40;;;;;;;6.05;100.00;100804.69;6121682;23;20017;-71
2024/03/23 00:23:54;;;;;;;12.40;2.03;;;;;;;6.05;100.00;100801.22;6146877;23;20012;-70
2024/03/23 00:26:20;;;;;;;14.13;2.45;;;;;;;6.03;100.00;100796.16;6172701;23;20020;-70
2024/03/23 00:28:47;;;;;;;14.57;2.30;;;;;;;6.01;100.00;100799.03;6122102;23;20776;-70
2024/03/23 00:31:14;;;;;;;15.20;2.33;;;;;;;6.00;100.00;100791.31;6121002;23;20478;-70
2024/03/23 00:33:41;;;;;;;17.33;2.97;;;;;;;5.97;100.00;100786.47;6171036;23;20020;-70
2024/03/23 00:36:08;;;;;;;19.98;3.08;;;;;;;5.99;100.00;100789.69;6096937;23;20019;-70
2024/03/23 00:38:36;;;;;;;16.77;2.78;;;;;;;5.98;100.00;100777.44;6146235;23;20017;-71
2024/03/23 00:41:03;;;;;;;19.60;3.08;;;;;;;5.97;100.00;100774.00;6173010;23;20036;-73
2024/03/23 00:43:30;;;;;;;25.80;2.80;;;;;;;5.96;100.00;100774.19;6146932;23;20023;-73
2024/03/23 00:45:57;;;;;;;13.85;2.42;;;;;;;5.96;100.00;100755.59;6122093;23;20422;-72
2024/03/23 00:48:23;;;;;;;16.38;2.63;;;;;;;5.94;100.00;100757.69;6145285;23;20017;-71
2024/03/23 00:50:50;;;;;;;13.52;2.50;;;;;;;5.92;100.00;100757.13;6146179;23;20097;-71
2024/03/23 00:53:17;;;;;;;26.52;3.90;;;;;;;5.92;100.00;100762.44;6145221;23;20021;-72
2024/03/23 00:55:43;;;;;;;16.25;3.90;;;;;;;5.90;100.00;100765.31;6121782;23;20021;-72
2024/03/23 00:58:09;;;;;;;22.25;2.88;;;;;;;5.90;100.00;100748.56;6141683;23;20526;-72
2024/03/23 01:00:35;;;;;;;21.50;3.10;;;;;;;5.88;100.00;100750.63;6171170;23;20174;-72
2024/03/23 01:03:01;;;;;;;15.13;2.70;;;;;;;5.86;100.00;100740.25;6148289;23;20017;-72
2024/03/23 01:05:26;;;;;;;16.05;2.45;;;;;;;5.86;100.00;100748.22;6148128;23;20028;-72
2024/03/23 01:07:52;;;;;;;15.52;2.70;;;;;;;5.85;100.00;100740.50;6149143;23;20020;-71
2024/03/23 01:10:18;;;;;;;18.92;3.15;;;;;;;5.83;100.00;100740.75;6093707;23;20044;-70
2024/03/23 01:12:44;;;;;;;19.38;2.63;;;;;;;5.84;100.00;100741.53;6146559;23;20017;-70
2024/03/23 01:15:10;;;;;;;22.13;3.70;;;;;;;5.83;100.00;100740.75;6142634;23;20010;-71
2024/03/23 01:17:36;;;;;;;18.88;2.97;;;;;;;5.83;100.00;100739.94;6145591;23;20076;-71
2024/03/23 01:20:02;;;;;;;32.10;4.88;;;;;;;5.84;100.00;100744.19;6145470;23;20021;-70
2024/03/23 01:22:28;;;;;;;14.63;2.10;;;;;;;5.85;100.00;100735.19;6118648;23;20100;-71
2024/03/23 01:24:54;;;;;;;13.60;2.75;;;;;;;5.85;100.00;100727.19;6119118;23;20086;-71
2024/03/23 01:27:20;;;;;;;18.50;3.20;;;;;;;5.82;100.00;100714.38;6143378;23;20018;-70
2024/03/23 01:29:45;;;;;;;20.90;2.80;;;;;;;5.81;100.00;100720.75;6143103;23;20463;-70
2024/03/23 01:32:12;;;;;;;17.67;3.38;;;;;;;5.78;100.00;100721.22;6142991;23;20103;-70
2024/03/23 01:34:38;;;;;;;22.02;3.22;;;;;;;5.77;100.00;100716.97;6118491;23;20049;-72
2024/03/23 01:37:04;;;;;;;28.23;3.70;;;;;;;5.77;100.00;100716.97;6143062;23;20403;-71
2024/03/23 01:39:30;;;;;;;;;;;;;;;5.76;100.00;100716.16;6142256;23;20096;-70
2024/03/23 01:41:55;;;;;;;17.55;2.97;;;;;;;5.73;100.00;100712.09;6118311;23;19940;-70
2024/03/23 01:44:21;;;;;;;23.10;3.03;;;;;;;5.73;100.00;100698.81;6142697;23;20431;-71
2024/03/23 01:46:46;;;;;;;21.30;3.05;;;;;;;5.72;100.00;100694.56;6143591;23;20459;-70
2024/03/23 01:49:13;;;;;;;18.95;2.67;;;;;;;5.70;100.00;100701.97;6093600;23;20029;-70
2024/03/23 01:51:39;;;;;;;24.95;3.38;;;;;;;5.69;100.00;100702.19;6143191;23;20022;-70
2024/03/23 01:54:06;;;;;;;19.42;2.88;;;;;;;5.68;100.00;100688.09;6142558;23;20017;-70
2024/03/23 01:56:33;;;;;;;17.13;3.00;;;;;;;5.66;100.00;100684.88;6141692;23;20025;-70
2024/03/23 01:58:59;;;;;;;26.23;3.50;;;;;;;5.64;100.00;100679.00;6143761;23;20013;-70
2024/03/23 02:01:25;;;;;;;19.45;3.47;;;;;;;5.63;100.00;100673.94;6116757;23;20032;-71
2024/03/23 02:03:50;;;;;;;14.15;2.92;;;;;;;5.60;100.00;100669.09;6142733;23;20459;-71
2024/03/23 02:06:16;;;;;;;24.08;3.15;;;;;;;5.57;100.00;100665.06;6118196;23;20013;-71
2024/03/23 02:08:43;;;;;;;16.35;3.30;;;;;;;5.53;100.00;100658.59;6143707;23;20009;-69
2024/03/23 02:11:09;;;;;;;22.33;2.80;;;;;;;5.50;100.00;100661.75;6142997;23;20025;-70
2024/03/23 02:13:34;;;;;;;19.10;2.70;;;;;;;5.47;100.00;100664.84;6092872;23;20017;-70
2024/03/23 02:16:00;;;;;;;21.30;2.90;;;;;;;5.46;100.00;100666.72;6093549;23;20025;-69
2024/03/23 02:18:25;;;;;;;24.00;3.17;;;;;;;5.42;100.00;100665.59;6142230;23;20017;-69
2024/03/23 02:20:51;;;;;;;23.13;3.58;;;;;;;5.40;100.00;100653.56;6144361;23;20603;-69
2024/03/23 02:23:20;;;;;;;16.13;3.03;;;;;;;5.38;100.00;100658.31;6142366;23;20013;-69
2024/03/23 02:25:45;;;;;;;14.77;2.50;;;;;;;5.37;100.00;100648.75;6117678;23;20017;-69
2024/03/23 02:28:11;;;;;;;23.17;3.22;;;;;;;5.36;100.00;100641.84;6067920;23;20025;-69
2024/03/23 02:30:38;;;;;;;15.20;2.50;;;;;;;5.33;100.00;100640.44;6118493;23;20048;-69
2024/03/23 02:33:04;;;;;;;23.10;3.20;;;;;;;5.33;100.00;100636.97;6144238;23;20048;-70
2024/03/23 02:35:30;;;;;;;20.02;3.08;;;;;;;5.33;100.00;100642.28;6143804;23;20018;-69
2024/03/23 02:37:57;;;;;;;24.13;3.15;;;;;;;5.33;100.00;100642.28;6118675;23;20018;-68
2024/03/23 02:40:24;;;;;;;23.02;3.40;;;;;;;5.34;100.00;100627.97;6069369;23;20017;-68
2024/03/23 02:42:49;;;;;;;25.45;3.90;;;;;;;5.32;100.00;100636.16;6092576;23;20020;-71
2024/03/23 02:45:15;;;;;;;21.63;3.58;;;;;;;5.31;100.00;100629.25;6142961;23;20336;-69
2024/03/23 02:47:41;;;;;;;18.73;3.42;;;;;;;5.29;100.00;100626.03;6093480;23;20024;-70
2024/03/23 02:50:08;;;;;;;19.33;2.75;;;;;;;5.28;100.00;100623.59;6093537;23;20101;-68
2024/03/23 02:52:34;;;;;;;23.13;3.17;;;;;;;5.25;100.00;100622.22;6117305;23;20024;-68
2024/03/23 02:55:01;;;;;;;18.45;2.70;;;;;;;5.24;100.00;100617.97;6142423;23;20018;-69
2024/03/23 02:57:27;;;;;;;16.58;3.10;;;;;;;5.22;100.00;100621.91;6116285;23;20103;-69
2024/03/23 02:59:54;;;;;;;11.82;2.78;;;;;;;5.18;100.00;100622.38;6143655;23;20071;-69
2024/03/23 03:02:20;;;;;;;19.45;2.65;;;;;;;5.17;100.00;100620.78;6142462;23;20041;-68
2024/03/23 03:04:46;;;;;;;19.17;2.95;;;;;;;5.13;100.00;100622.28;6093366;23;20021;-69
2024/03/23 03:07:11;;;;;;;14.23;2.40;;;;;;;5.11;100.00;100624.38;6068601;23;20443;-71
2024/03/23 03:09:38;;;;;;;10.48;2.92;;;;;;;5.09;100.00;100604.41;6150908;23;20024;-69
2024/03/23 03:12:07;;;;;;;14.48;2.40;;;;;;;5.05;100.00;100606.72;6147118;23;20051;-69
2024/03/23 03:14:34;;;;;;;12.60;2.30;;;;;;;5.04;100.00;100606.97;6140088;23;20879;-68
2024/03/23 03:17:00;;;;;;;12.30;2.10;;;;;;;5.02;100.00;100599.25;6147258;23;20017;-68
2024/03/23 03:19:25;;;;;;;11.27;2.40;;;;;;;5.00;100.00;100595.19;6145812;23;20012;-69
2024/03/23 03:21:51;;;;;;;15.15;2.58;;;;;;;4.98;100.00;100598.09;6172933;23;20017;-68
2024/03/23 03:24:17;;;;;;;17.65;3.13;;;;;;;4.98;100.00;100594.63;6144441;23;20012;-69
2024/03/23 03:26:43;;;;;;;14.00;2.97;;;;;;;4.98;100.00;100597.28;6173454;23;20021;-69
2024/03/23 03:29:09;;;;;;;15.98;2.83;;;;;;;4.96;100.00;100588.75;6146358;23;20017;-70
2024/03/23 03:31:35;;;;;;;19.77;2.85;;;;;;;4.97;100.00;100596.50;6146950;23;20616;-69
2024/03/23 03:34:00;;;;;;;19.58;2.45;;;;;;;4.97;100.00;100590.38;6145369;23;20020;-69
2024/03/23 03:36:26;;;;;;;20.30;3.30;;;;;;;4.97;100.00;100579.75;6146302;23;20059;-68
2024/03/23 03:38:52;;;;;;;18.15;2.88;;;;;;;4.96;100.00;100581.59;6144377;23;20019;-70
2024/03/23 03:41:19;;;;;;;23.55;3.63;;;;;;;4.95;100.00;100568.59;6171650;23;20467;-68
2024/03/23 03:43:44;;;;;;;16.98;2.38;;;;;;;4.94;100.00;100570.41;6120568;23;20599;-69
2024/03/23 03:46:10;;;;;;;14.77;3.25;;;;;;;4.94;100.00;100573.06;6146994;23;20017;-69
2024/03/23 03:48:36;;;;;;;16.90;2.22;;;;;;;4.92;100.00;100561.88;6145398;23;20016;-68
2024/03/23 03:51:02;;;;;;;18.35;2.97;;;;;;;4.93;100.00;100568.78;6147652;23;20451;-70
2024/03/23 03:53:28;;;;;;;17.90;2.80;;;;;;;4.91;100.00;100565.59;6120646;23;20016;-68
2024/03/23 03:55:54;;;;;;;17.58;2.75;;;;;;;4.90;100.00;100562.13;6173030;23;20556;-68
2024/03/23 03:58:19;;;;;;;17.48;3.13;;;;;;;4.89;100.00;100552.56;6119536;23;20029;-69
2024/03/23 04:00:45;;;;;;;11.82;2.45;;;;;;;4.87;100.00;100553.81;6171752;23;20071;-68
2024/03/23 04:03:11;;;;;;;20.98;2.88;;;;;;;4.85;100.00;100540.78;6172343;23;20104;-69
2024/03/23 04:05:37;;;;;;;12.77;2.42;;;;;;;4.85;100.00;100550.59;6170694;23;20098;-69
2024/03/23 04:08:04;;;;;;;17.30;2.67;;;;;;;4.83;100.00;100555.34;6172993;23;20013;-69
2024/03/23 04:10:30;;;;;;;14.70;2.72;;;;;;;4.82;100.00;100548.44;6171489;23;20016;-70
2024/03/23 04:12:56;;;;;;;15.75;2.60;;;;;;;4.81;100.00;100544.13;6174317;23;20013;-69
2024/03/23 04:15:21;;;;;;;18.33;2.85;;;;;;;4.81;100.00;100544.13;6145886;23;20017;-70
2024/03/23 04:17:47;;;;;;;8.90;1.83;;;;;;;4.80;100.00;100539.88;6149094;23;20443;-70
2024/03/23 04:20:16;;;;;;;14.30;2.30;;;;;;;4.78;100.00;100544.63;6149137;23;20009;-69
2024/03/23 04:22:43;;;;;;;11.82;2.05;;;;;;;4.81;100.00;100533.53;6148151;23;20021;-70
2024/03/23 04:25:10;;;;;;;11.25;2.30;;;;;;;4.82;100.00;100521.91;6124312;23;20013;-69
2024/03/23 04:27:36;;;;;;;17.20;2.67;;;;;;;4.81;100.00;100507.00;6148488;23;20566;-70
2024/03/23 04:30:04;;;;;;;11.50;2.60;;;;;;;4.79;100.00;100499.28;6149173;23;20065;-69
2024/03/23 04:32:30;;;;;;;19.75;3.15;;;;;;;4.77;100.00;100517.28;6174357;23;20435;-69
2024/03/23 04:34:56;;;;;;;15.55;3.10;;;;;;;4.74;100.00;100539.00;6174085;23;20071;-70
2024/03/23 04:37:22;;;;;;;13.77;2.70;;;;;;;4.74;100.00;100538.16;6146874;23;20024;-69
2024/03/23 04:39:48;;;;;;;13.27;2.55;;;;;;;4.72;100.00;100543.72;6146954;23;20017;-69
2024/03/23 04:42:17;;;;;;;18.00;2.63;;;;;;;4.72;100.00;100532.31;6174811;23;20698;-69
2024/03/23 04:44:42;;;;;;;12.50;2.35;;;;;;;4.71;100.00;100539.47;6123692;23;20048;-69
2024/03/23 04:47:08;;;;;;;13.65;2.20;;;;;;;4.69;100.00;100549.50;6124412;23;20648;-69
2024/03/23 04:49:36;;;;;;;21.65;2.95;;;;;;;4.66;100.00;100557.91;6173619;23;20028;-69
2024/03/23 04:52:04;;;;;;;11.60;2.08;;;;;;;4.65;100.00;100551.81;6174457;23;20848;-71
2024/03/23 04:54:32;;;;;;;19.65;2.83;;;;;;;4.63;100.00;100537.19;6146596;23;20068;-69
2024/03/23 04:56:58;;;;;;;13.20;2.25;;;;;;;4.62;100.00;100541.69;6148330;23;20561;-69
2024/03/23 04:59:23;;;;;;;12.18;1.88;;;;;;;4.62;100.00;100525.75;6174037;23;20009;-71
2024/03/23 05:01:49;;;;;;;12.80;1.92;;;;;;;4.59;100.00;100523.56;6148469;23;20049;-70
2024/03/23 05:04:16;;;;;;;11.48;2.00;;;;;;;4.57;100.00;100512.41;6123906;23;20430;-70
2024/03/23 05:06:42;;;;;;;15.32;2.50;;;;;;;4.57;100.00;100506.28;6149357;23;20032;-70
2024/03/23 05:09:11;;;;;;;10.65;1.95;;;;;;;4.55;100.00;100509.19;6148213;23;20024;-70
2024/03/23 05:11:41;;;;;;;9.48;2.20;;;;;;;4.55;100.00;100519.00;6148281;23;20040;-70
2024/03/23 05:14:07;;;;;;;11.00;1.85;;;;;;;4.54;100.00;100523.50;6174685;23;20017;-69
2024/03/23 05:16:33;;;;;;;12.38;2.47;;;;;;;4.54;100.00;100518.19;6148172;23;20055;-70
2024/03/23 05:18:58;;;;;;;17.33;2.40;;;;;;;4.55;100.00;100522.44;6147834;23;20016;-72
2024/03/23 05:21:24;;;;;;;21.02;2.47;;;;;;;4.56;100.00;100520.59;6148027;23;20036;-68
2024/03/23 05:23:51;;;;;;;12.45;2.00;;;;;;;4.56;100.00;100516.09;6174984;23;20082;-71
2024/03/23 05:26:17;;;;;;;18.73;2.55;;;;;;;4.56;100.00;100521.41;6174232;23;20012;-69
2024/03/23 05:28:43;;;;;;;19.77;2.47;;;;;;;4.55;100.00;100514.50;6147887;23;20171;-71
2024/03/23 05:31:09;;;;;;;8.75;2.08;;;;;;;4.56;100.00;100515.28;6175478;23;20017;-69
2024/03/23 05:33:39;;;;;;;14.73;2.65;;;;;;;4.54;100.00;100507.56;6174530;23;20079;-69
2024/03/23 05:36:05;;;;;;;21.13;2.78;;;;;;;4.56;100.00;100508.13;6123578;23;20017;-69
2024/03/23 05:38:31;;;;;;;12.05;2.58;;;;;;;4.54;100.00;100507.56;6173881;23;20088;-70
2024/03/23 05:40:58;;;;;;;10.65;2.13;;;;;;;4.55;100.00;100506.53;6171756;23;20015;-70
2024/03/23 05:43:24;;;;;;;17.95;2.58;;;;;;;4.53;100.00;100492.69;6174361;23;20469;-68
2024/03/23 05:46:01;;;;;;;8.43;2.13;;;;;;;4.54;100.00;100490.84;6175047;23;20012;-70
2024/03/23 05:48:27;;;;;;;17.88;2.88;;;;;;;4.53;100.00;100481.28;6148800;23;20013;-68
2024/03/23 05:50:53;;;;;;;16.98;2.10;;;;;;;4.52;100.00;100477.00;6149829;23;20099;-68
2024/03/23 05:53:23;;;;;;;11.23;2.25;;;;;;;4.52;100.00;100475.16;6175420;23;20016;-69
2024/03/23 05:55:50;;;;;;;14.93;2.00;;;;;;;4.54;100.00;100486.34;6149335;23;20021;-69
2024/03/23 05:58:17;;;;;;;20.42;4.07;;;;;;;4.54;100.00;100465.16;6125042;23;20040;-69
2024/03/23 06:00:43;;;;;;;15.70;2.40;;;;;;;4.54;100.00;100465.16;6150743;23;20143;-69
2024/03/23 06:03:12;;;;;;;16.80;2.70;;;;;;;4.56;100.00;100467.56;6125702;23;20103;-69
2024/03/23 06:05:38;;;;;;;16.00;3.13;;;;;;;4.59;100.00;100486.44;6149568;23;20009;-70
2024/03/23 06:08:04;;;;;;;12.82;2.58;;;;;;;4.63;100.00;100481.47;6176086;23;20020;-69
2024/03/23 06:10:30;;;;;;;18.23;3.10;;;;;;;4.70;100.00;100479.50;6174983;23;20363;-69
2024/03/23 06:12:56;;;;;;;;;;;;;;;4.75;100.00;100476.13;6176958;23;20014;-70
2024/03/23 06:15:22;;;;;;;14.38;2.92;;;;;;;4.79;100.00;100483.38;6175770;23;20421;-70
2024/03/23 06:17:48;;;;;;;15.00;2.38;;;;;;;4.82;100.00;100472.28;6176395;23;20013;-70
2024/03/23 06:20:14;;;;;;;14.63;2.63;;;;;;;4.86;100.00;100477.91;6150786;23;20021;-69
2024/03/23 06:22:40;;;;;;;16.10;2.38;;;;;;;4.89;100.00;100482.75;6175788;23;20013;-71
2024/03/23 06:25:07;;;;;;;13.63;2.45;;;;;;;4.91;100.00;100475.34;6176143;23;20009;-70
2024/03/23 06:27:33;;;;;;;11.27;2.28;;;;;;;4.92;100.00;100471.66;6149780;23;20009;-70
2024/03/23 06:29:59;;;;;;;15.07;2.00;;;;;;;4.94;100.00;100469.56;6150695;23;20016;-70
2024/03/23 06:32:25;;;;;;;12.98;2.63;;;;;;;4.97;100.00;100469.09;6149989;23;20028;-71
2024/03/23 06:34:50;;;;;;;16.98;2.42;;;;;;;5.00;100.00;100473.13;6148811;23;20009;-71
2024/03/23 06:37:16;;;;;;;13.15;2.22;;;;;;;5.05;100.00;100471.34;6149356;23;20017;-70
2024/03/23 06:39:42;;;;;;;22.50;3.53;;;;;;;5.11;100.00;100473.06;6148055;23;20421;-70
2024/03/23 06:42:08;;;;;;;17.65;3.75;;;;;;;5.18;100.00;100476.34;6123877;23;20027;-69
2024/03/23 06:44:34;;;;;;;17.25;2.75;;;;;;;5.26;100.00;100469.03;6124436;23;20083;-69
2024/03/23 06:46:59;;;;;;;20.10;2.67;;;;;;;5.38;100.00;100464.47;6124931;23;20376;-71
2024/03/23 06:49:25;;;;;;;14.05;2.42;;;;;;;5.49;100.00;100468.91;6148428;23;20458;-70
2024/03/23 06:51:51;;;;;;;18.10;2.67;;;;;;;5.58;100.00;100458.66;6174750;23;20013;-71
2024/03/23 06:54:17;;;;;;;16.65;3.05;;;;;;;5.59;100.00;100466.38;6124116;23;20020;-71
2024/03/23 06:56:44;;;;;;;13.90;2.70;;;;;;;5.67;100.00;100460.66;6148423;23;20355;-71
2024/03/23 06:59:09;;;;;;;16.58;3.05;;;;;;;5.71;100.00;100468.94;6148038;23;20477;-70
2024/03/23 07:01:35;;;;;;;16.35;3.15;;;;;;;5.68;100.00;100464.91;6148767;23;20017;-71
2024/03/23 07:04:01;;;;;;;15.98;2.50;;;;;;;5.69;100.00;100461.22;6149190;23;20013;-70
2024/03/23 07:06:27;;;;;;;20.95;3.30;;;;;;;5.69;100.00;100461.22;6175562;23;20013;-70
2024/03/23 07:08:53;;;;;;;14.55;2.75;;;;;;;5.71;100.00;100464.44;6147745;23;20036;-68
2024/03/23 07:11:20;;;;;;;13.63;2.53;;;;;;;5.74;100.00;100463.13;6124534;23;20020;-70
2024/03/23 07:13:46;;;;;;;16.73;3.40;;;;;;;5.73;100.00;100462.34;6174695;23;20020;-71
2024/03/23 07:16:13;;;;;;;14.70;2.70;;;;;;;5.76;100.00;100461.06;6149733;23;20013;-71
2024/03/23 07:18:39;;;;;;;14.98;2.53;;;;;;;5.78;100.00;100468.78;6148588;23;20008;-70
2024/03/23 07:21:06;;;;;;;;;;;;;;;5.80;100.00;100462.16;6177224;23;20016;-69
2024/03/23 07:23:32;;;;;;;20.08;3.17;;;;;;;5.82;100.00;100456.59;6148071;23;20370;-70
2024/03/23 07:25:58;;;;;;;15.68;2.33;;;;;;;5.86;100.00;100468.34;6124079;23;20023;-70
2024/03/23 07:28:24;;;;;;;16.67;2.67;;;;;;;5.87;100.00;100468.09;6175369;23;20040;-70
2024/03/23 07:31:02;;;;;;;20.75;3.35;;;;;;;5.88;100.00;100475.03;6175069;23;20020;-70
2024/03/23 07:33:28;;;;;;;15.30;3.10;;;;;;;5.90;100.00;100466.84;6100694;23;20017;-71
2024/03/23 07:35:54;;;;;;;17.08;3.28;;;;;;;5.95;100.00;100470.38;6175662;23;20743;-71
2024/03/23 07:38:19;;;;;;;10.30;3.08;;;;;;;6.00;100.00;100467.78;6123701;23;20008;-71
2024/03/23 07:40:45;;;;;;;19.58;3.83;;;;;;;6.08;100.00;100463.91;6149375;23;20058;-71
2024/03/23 07:43:11;;;;;;;22.35;2.95;;;;;;;6.17;100.00;100462.44;6149577;23;20053;-69
2024/03/23 07:45:37;;;;;;;17.50;3.63;;;;;;;6.23;100.00;100456.13;6124561;23;20012;-69
2024/03/23 07:48:04;;;;;;;12.82;2.83;;;;;;;6.32;100.00;100450.38;6148834;23;20012;-69
2024/03/23 07:50:30;;;;;;;13.52;2.40;;;;;;;6.44;100.00;100451.06;6174982;23;20036;-70
2024/03/23 07:52:55;;;;;;;18.95;2.55;;;;;;;6.59;100.00;100448.56;6148411;23;20458;-70
2024/03/23 07:55:21;;;;;;;17.33;3.03;;;;;;;6.62;100.00;100442.72;6147841;23;20048;-69
2024/03/23 07:57:47;;;;;;;20.20;3.50;;;;;;;6.73;100.00;100444.44;6147547;23;20098;-69
2024/03/23 08:00:13;;;;;;;11.88;2.33;;;;;;;6.78;100.00;100441.81;6148878;23;20048;-70
2024/03/23 08:02:39;;;;;;;15.25;2.95;;;;;;;6.78;100.00;100441.03;6146880;23;20025;-69
2024/03/23 08:05:05;;;;;;;14.45;2.05;;;;;;;6.79;100.00;100443.44;6149417;23;20316;-70
2024/03/23 08:07:31;;;;;;;14.73;2.38;;;;;;;6.82;100.00;100436.78;6147383;23;20355;-70
2024/03/23 08:09:59;;;;;;;17.40;3.20;;;;;;;6.86;100.00;100439.78;6147753;23;20021;-69
2024/03/23 08:12:25;;;;;;;13.50;3.22;;;;;;;6.92;100.00;100436.91;6123882;23;20045;-69
2024/03/23 08:14:50;;;;;;;17.70;3.00;;;;;;;6.96;100.00;100442.50;6123796;23;20020;-68
2024/03/23 08:17:16;;;;;;;21.23;3.45;;;;;;;7.02;100.00;100441.50;6175332;23;20016;-69
2024/03/23 08:19:41;;;;;;;11.65;3.25;;;;;;;7.12;100.00;100430.94;6147550;23;20386;-69
2024/03/23 08:22:07;;;;;;;14.65;2.45;;;;;;;7.19;100.00;100433.41;6148424;23;20013;-71
2024/03/23 08:24:52;;;;;;;;;;;;;;;7.27;100.00;100428.41;6148576;23;20517;-69
2024/03/23 08:27:17;;;;;;;12.90;2.50;;;;;;;7.33;100.00;100437.25;6123920;23;20010;-68
2024/03/23 08:29:45;;;;;;;14.90;3.10;;;;;;;7.39;100.00;100421.03;6148528;23;20013;-69
2024/03/23 08:32:12;;;;;;;13.05;2.30;;;;;;;7.47;100.00;100425.06;6174655;23;20016;-68
2024/03/23 08:34:37;;;;;;;16.25;2.90;;;;;;;7.57;100.00;100419.81;6122767;23;20546;-69
2024/03/23 08:37:03;;;;;;;15.77;3.17;;;;;;;7.59;100.00;100435.56;6123314;23;20020;-69
2024/03/23 08:39:29;;;;;;;14.57;2.60;;;;;;;7.67;100.00;100421.75;6123788;23;20017;-71
2024/03/23 08:41:54;;;;;;;7.30;2.35;;;;;;;7.80;100.00;100426.63;6123231;23;20021;-70
2024/03/23 08:44:20;;;;;;;13.40;2.92;;;;;;;7.85;100.00;100421.28;6172753;23;20017;-70
2024/03/23 08:46:45;;;;;;;15.55;2.90;;;;;;;7.99;100.00;100420.81;6173054;23;20032;-71
2024/03/23 08:49:12;;;;;;;16.50;2.63;;;;;;;8.02;100.00;100406.97;6122462;23;20096;-70
2024/03/23 08:51:38;;;;;;;19.33;2.40;;;;;;;8.09;100.00;100412.88;6123143;23;20534;-71
2024/03/23 08:54:03;;;;;;;15.20;2.22;;;;;;;8.17;100.00;100415.03;6172930;23;20817;-71
2024/03/23 08:56:29;;;;;;;13.77;2.65;;;;;;;8.21;100.00;100405.47;6174903;23;20071;-69
2024/03/23 08:58:55;;;;;;;12.25;2.45;;;;;;;8.22;100.00;100412.41;6150299;23;20016;-69
2024/03/23 09:01:21;;;;;;;15.93;2.60;;;;;;;8.11;100.00;100400.88;6148192;23;20139;-70
2024/03/23 09:03:46;;;;;;;12.95;3.08;;;;;;;8.07;100.00;100409.69;6146282;23;20060;-69
2024/03/23 09:06:14;;;;;;;15.18;2.90;;;;;;;8.08;100.00;100403.28;6148657;23;20013;-69
2024/03/23 09:08:41;;;;;;;15.35;2.33;;;;;;;8.04;100.00;100404.84;6147598;23;20087;-70
2024/03/23 09:11:08;;;;;;;16.08;2.58;;;;;;;8.02;100.00;100405.13;6123731;23;20024;-69
2024/03/23 09:13:35;;;;;;;10.52;2.35;;;;;;;7.97;100.00;100399.75;6123783;23;20088;-69
2024/03/23 09:16:01;;;;;;;11.50;2.47;;;;;;;7.91;100.00;100395.47;6174935;23;20380;-68
2024/03/23 09:18:27;;;;;;;12.43;2.17;;;;;;;7.89;100.00;100389.59;6147984;23;20016;-69
2024/03/23 09:20:54;;;;;;;;;;;;;;;7.97;100.00;100394.41;6148891;23;20017;-69
2024/03/23 09:23:21;;;;;;;12.00;2.30;;;;;;;8.10;100.00;100391.28;6149705;23;20382;-69
2024/03/23 09:25:46;;;;;;;14.32;2.63;;;;;;;8.27;100.00;100383.06;6149708;23;20324;-70
2024/03/23 09:28:12;;;;;;;12.80;2.33;;;;;;;8.36;100.00;100389.53;6176304;23;20446;-70
2024/03/23 09:30:42;;;;;;;10.40;1.85;;;;;;;8.43;100.00;100386.59;6151310;23;20020;-69
2024/03/23 09:33:14;;;;;;;8.30;1.73;;;;;;;8.51;100.00;100386.06;6125901;23;20013;-69
2024/03/23 09:35:40;;;;;;;12.27;2.20;;;;;;;8.56;100.00;100385.28;6124928;23;20558;-71
2024/03/23 09:38:09;;;;;;;13.82;2.40;;;;;;;8.55;100.00;100378.34;6150147;23;20351;-70
2024/03/23 09:40:42;;;;;;;12.52;2.40;;;;;;;8.51;100.00;100380.75;6127240;23;20444;-69
2024/03/23 09:43:08;;;;;;;10.52;2.13;;;;;;;8.50;100.00;100375.66;6126036;23;20017;-72
2024/03/23 09:45:39;;;;;;;9.02;2.10;;;;;;;8.44;100.00;100381.00;6150274;23;20016;-71
2024/03/23 09:48:06;;;;;;;11.13;2.25;;;;;;;8.58;100.00;100377.81;6149232;23;20028;-72
2024/03/23 09:50:32;;;;;;;10.43;2.08;;;;;;;8.71;100.00;100382.63;6150911;23;20039;-71
2024/03/23 09:52:57;;;;;;;10.82;2.35;;;;;;;8.82;100.00;100373.56;6125290;23;20013;-72
2024/03/23 09:55:24;;;;;;;10.15;1.83;;;;;;;8.86;100.00;100376.50;6175469;23;20017;-70
2024/03/23 09:57:51;;;;;;;11.30;2.28;;;;;;;9.08;100.00;100368.22;6176018;23;20098;-69
2024/03/23 10:00:17;;;;;;;10.07;2.53;;;;;;;9.11;100.00;100370.38;6148601;23;20069;-70
2024/03/23 10:02:43;;;;;;;13.05;2.10;;;;;;;8.94;100.00;100363.44;6175545;23;20386;-71
2024/03/23 10:05:27;;;;;;;9.52;1.90;;;;;;;8.77;100.00;100360.22;6149612;23;20017;-71
2024/03/23 10:07:53;;;;;;;7.22;1.92;;;;;;;8.59;100.00;100369.53;6122936;23;20017;-69
2024/03/23 10:10:21;;;;;;;9.23;2.03;;;;;;;8.65;100.00;100362.34;6177299;23;20024;-69
2024/03/23 10:12:50;;;;;;;8.48;2.22;;;;;;;8.58;100.00;100356.47;6150017;23;20017;-71
2024/03/23 10:15:24;;;;;;;5.88;1.60;;;;;;;8.59;100.00;100358.06;6151227;23;20016;-69
2024/03/23 10:17:51;;;;;;;10.32;1.85;;;;;;;8.53;100.00;100359.13;6175440;23;20012;-70
2024/03/23 10:20:22;;;;;;;8.25;1.75;;;;;;;8.46;100.00;100352.16;6179159;23;20012;-70
2024/03/23 10:22:51;;;;;;;10.98;2.03;;;;;;;8.45;100.00;100358.56;6150968;23;20013;-69
2024/03/23 10:25:17;;;;;;;7.20;1.45;;;;;;;8.61;100.00;100353.28;6126100;23;20434;-70
2024/03/23 10:27:58;;;;;;;9.75;1.50;;;;;;;8.92;100.00;100354.88;6177624;23;20073;-69
2024/03/23 10:30:27;;;;;;;8.05;1.60;;;;;;;9.10;100.00;100342.03;6151088;23;20091;-69
2024/03/23 10:33:15;;;;;;;8.98;2.08;;;;;;;9.16;100.00;100346.31;6125325;23;20016;-69
2024/03/23 10:35:42;;;;;;;7.95;1.63;;;;;;;9.20;100.00;100340.16;6176366;23;20017;-70
2024/03/23 10:38:08;;;;;;;8.85;1.80;;;;;;;9.21;100.00;100332.94;6149097;23;20024;-70
2024/03/23 10:40:37;;;;;;;7.28;1.38;;;;;;;9.29;100.00;100332.41;6177035;23;20013;-69
2024/03/23 10:43:04;;;;;;;8.27;1.45;;;;;;;9.52;100.00;100329.13;6150107;23;20124;-69
2024/03/23 10:45:30;;;;;;;6.18;1.70;;;;;;;9.73;100.00;100326.38;6148898;23;20013;-68
2024/03/23 10:47:56;;;;;;;8.18;2.30;;;;;;;10.03;100.00;100317.41;6149281;23;20017;-69
2024/03/23 10:50:22;;;;;;;9.23;1.42;;;;;;;10.08;100.00;100309.34;6149537;23;20023;-70
2024/03/23 10:52:49;;;;;;;7.53;1.60;;;;;;;9.96;100.00;100306.22;6149002;23;20017;-69
2024/03/23 10:55:16;;;;;;;;;;;;;;;9.89;100.00;100309.19;6149105;23;20063;-69
2024/03/23 10:57:51;;;;;;;6.75;1.25;;;;;;;10.19;100.00;100304.75;6149377;23;19916;-69
2024/03/23 11:00:17;;;;;;;9.00;1.63;;;;;;;10.46;100.00;100312.34;6126113;23;20454;-69
2024/03/23 11:02:43;;;;;;;7.18;1.45;;;;;;;10.33;100.00;100311.91;6148789;23;20079;-71
2024/03/23 11:05:28;;;;;;;4.80;1.20;;;;;;;9.93;100.00;100331.63;6148815;23;20017;-69
2024/03/23 11:07:54;;;;;;;7.55;2.13;;;;;;;9.74;100.00;100347.47;6123721;23;20016;-68
2024/03/23 11:10:26;;;;;;;5.90;1.48;;;;;;;9.47;100.00;100329.13;6176372;23;20047;-70
2024/03/23 11:12:53;;;;;;;6.18;1.67;;;;;;;9.11;100.00;100335.63;6175452;23;20017;-70
2024/03/23 11:15:19;;;;;;;5.57;1.52;;;;;;;8.90;100.00;100321.50;6175069;23;20020;-70
2024/03/23 11:18:05;;;;;;;5.75;1.30;;;;;;;8.89;100.00;100318.03;6100716;23;20012;-70